Laredo, Texas
Current Conditions -  °F | °C
As of 3:56 PM on Tuesday 21 Oct 2014 (Local Time) from KLRD Reporting Station
Light Rain Light Rain  
Wind Chill: 74°   Ceiling: 3800
Heat Index: 74°   Visibility: 4mi
Dew Point: 72°   Wind: 8mph
Humidity: 93%   Direction: 210°SSW
Pressure: 29.96"   Gusts: NA
Location:  27.53°N, 99.5°W
Report Text: KLRD 212056Z 21007KT 4SM -RA BR FEW003 SCT025 BKN038 23/22 A2996 RMK AO2 56020 60010 T02330222 RAB23 P0010 SLP135
Loading
Personal Weather Stations






























Interactive Weather Map
Tropical Storm Tracking
New forecast layout! Learn more

10-Day Weather Forecast

Advertisements
Track Severe Weather on mobile